Time;durP1;ratioP1;P1;durP2;ratioP2;P2;SDS_P1;SDS_P2;PMS_P1;PMS_P2;Temp;Humidity;BMP_temperature;BMP_pressure;BME280_temperature;BME280_humidity;BME280_pressure;Samples;Min_cycle;Max_cycle;Signal;HPM_P1;HPM_P2
2022/08/03 00:01:48;;;;;;;;;0.00;0.00;;;;;;;;5007072;28;8796;-83
2022/08/03 00:04:15;;;;;;;;;1.80;1.00;;;;;;;;5004664;28;8882;-81
2022/08/03 00:06:43;;;;;;;;;1.00;1.00;;;;;;;;5010077;28;8873;-82
2022/08/03 00:09:11;;;;;;;;;1.00;1.00;;;;;;;;5007407;28;8864;-82
2022/08/03 00:11:39;;;;;;;;;2.00;2.00;;;;;;;;5006127;28;9654;-83
2022/08/03 00:14:09;;;;;;;;;1.00;1.00;;;;;;;;5006747;28;8872;-83
2022/08/03 00:16:37;;;;;;;;;1.40;1.00;;;;;;;;4995156;28;8863;-82
2022/08/03 00:19:04;;;;;;;;;1.00;1.00;;;;;;;;5007269;28;8864;-81
2022/08/03 00:21:32;;;;;;;;;1.00;1.00;;;;;;;;5012263;28;8881;-82
2022/08/03 00:24:01;;;;;;;;;1.40;1.40;;;;;;;;5013998;28;8879;-81
2022/08/03 00:26:28;;;;;;;;;1.00;1.00;;;;;;;;4990416;28;8984;-82
2022/08/03 00:28:55;;;;;;;;;1.00;1.00;;;;;;;;5004116;28;8872;-82
2022/08/03 00:31:25;;;;;;;;;0.80;0.80;;;;;;;;5006215;28;8801;-84
2022/08/03 00:33:53;;;;;;;;;1.00;1.00;;;;;;;;5000249;28;9023;-81
2022/08/03 00:36:22;;;;;;;;;2.20;1.00;;;;;;;;5005125;28;8910;-81
2022/08/03 00:38:50;;;;;;;;;1.00;1.00;;;;;;;;5004107;28;8880;-81
2022/08/03 00:41:18;;;;;;;;;0.80;0.80;;;;;;;;5005767;28;9022;-82
2022/08/03 00:43:46;;;;;;;;;1.00;1.00;;;;;;;;5005613;28;8876;-81
2022/08/03 00:46:13;;;;;;;;;1.00;1.00;;;;;;;;5003262;28;8859;-83
2022/08/03 00:48:40;;;;;;;;;2.60;1.00;;;;;;;;4999398;28;8856;-82
2022/08/03 00:51:08;;;;;;;;;0.00;0.00;;;;;;;;5005921;28;9885;-84
2022/08/03 00:53:36;;;;;;;;;1.00;1.00;;;;;;;;5005620;28;9591;-84
2022/08/03 00:56:03;;;;;;;;;0.80;0.80;;;;;;;;5005255;28;8868;-85
2022/08/03 00:58:32;;;;;;;;;1.00;1.00;;;;;;;;5014748;28;9556;-84
2022/08/03 01:00:59;;;;;;;;;0.00;0.00;;;;;;;;5000385;28;8816;-84
2022/08/03 01:03:26;;;;;;;;;1.25;1.00;;;;;;;;5019702;28;8865;-84
2022/08/03 01:05:58;;;;;;;;;1.00;1.00;;;;;;;;5011287;28;8872;-85
2022/08/03 01:08:32;;;;;;;;;0.75;0.75;;;;;;;;5014708;28;8972;-86
2022/08/03 01:11:07;;;;;;;;;2.00;2.00;;;;;;;;5006539;28;8915;-84
2022/08/03 01:13:45;;;;;;;;;1.00;1.00;;;;;;;;5009480;28;8896;-84
2022/08/03 01:16:18;;;;;;;;;1.25;1.25;;;;;;;;5006186;28;8899;-84
2022/08/03 01:18:49;;;;;;;;;2.50;1.00;;;;;;;;5014762;28;8861;-84
2022/08/03 01:21:24;;;;;;;;;1.00;1.00;;;;;;;;5018887;28;8874;-85
2022/08/03 01:24:14;;;;;;;;;2.75;1.00;;;;;;;;5011404;28;8931;-86
2022/08/03 01:26:54;;;;;;;;;1.00;1.00;;;;;;;;5005607;28;9782;-84
2022/08/03 01:29:41;;;;;;;;;0.75;0.75;;;;;;;;5004302;28;8882;-86
2022/08/03 01:32:12;;;;;;;;;0.25;0.25;;;;;;;;5004742;28;8820;-84
2022/08/03 01:34:45;;;;;;;;;0.25;0.25;;;;;;;;4996476;28;9639;-85
2022/08/03 01:37:14;;;;;;;;;0.75;0.75;;;;;;;;5014932;28;8867;-85
2022/08/03 01:39:42;;;;;;;;;1.00;1.00;;;;;;;;5003301;28;8902;-83
2022/08/03 01:42:12;;;;;;;;;1.50;0.00;;;;;;;;5004344;28;8899;-83
2022/08/03 01:44:42;;;;;;;;;0.75;0.75;;;;;;;;5004440;28;9007;-82
2022/08/03 01:47:11;;;;;;;;;0.00;0.00;;;;;;;;5004791;28;8880;-84
2022/08/03 01:49:40;;;;;;;;;1.25;1.25;;;;;;;;5009117;28;9825;-82
2022/08/03 01:52:08;;;;;;;;;2.00;0.00;;;;;;;;5004249;28;8876;-81
2022/08/03 01:54:38;;;;;;;;;0.25;0.25;;;;;;;;5014732;28;9012;-81
2022/08/03 01:57:05;;;;;;;;;1.00;1.00;;;;;;;;5012471;28;8870;-81
2022/08/03 01:59:35;;;;;;;;;0.25;0.25;;;;;;;;5008860;28;9034;-81
2022/08/03 02:02:04;;;;;;;;;1.00;1.00;;;;;;;;5003960;28;8851;-80
2022/08/03 02:04:32;;;;;;;;;1.00;1.00;;;;;;;;5005511;28;8882;-83
2022/08/03 02:07:00;;;;;;;;;2.00;1.00;;;;;;;;5003524;28;8878;-83
2022/08/03 02:09:28;;;;;;;;;1.00;1.00;;;;;;;;5003046;28;8880;-83
2022/08/03 02:11:56;;;;;;;;;1.00;1.00;;;;;;;;5004664;28;8872;-83
2022/08/03 02:14:24;;;;;;;;;1.00;1.00;;;;;;;;5003063;28;8910;-82
2022/08/03 02:16:53;;;;;;;;;2.50;1.00;;;;;;;;5004407;28;8884;-81
2022/08/03 02:22:33;;;;;;;;;0.25;0.25;;;;;;;;5004261;28;8889;-81
2022/08/03 02:25:01;;;;;;;;;0.00;0.00;;;;;;;;5004350;28;8864;-83
2022/08/03 02:34:08;;;;;;;;;0.00;0.00;;;;;;;;4883665;29;8942;-81
2022/08/03 02:36:39;;;;;;;;;0.75;0.75;;;;;;;;4900263;28;8893;-81
2022/08/03 02:39:39;;;;;;;;;0.75;0.75;;;;;;;;5004173;28;8874;-82
2022/08/03 03:06:05;;;;;;;;;1.00;1.00;;;;;;;;4862205;29;8883;-82
2022/08/03 03:08:32;;;;;;;;;1.00;1.00;;;;;;;;4951193;28;8866;-81
2022/08/03 03:11:01;;;;;;;;;1.25;1.25;;;;;;;;4977695;28;9020;-81
2022/08/03 03:13:29;;;;;;;;;1.00;1.00;;;;;;;;4973489;28;8881;-81
2022/08/03 03:16:00;;;;;;;;;2.00;1.00;;;;;;;;4965550;28;8885;-84
2022/08/03 03:18:29;;;;;;;;;1.00;1.00;;;;;;;;4962913;28;8878;-81
2022/08/03 03:20:57;;;;;;;;;1.00;1.00;;;;;;;;4976631;28;8927;-83
2022/08/03 03:23:26;;;;;;;;;0.50;0.50;;;;;;;;4968829;28;8889;-81
2022/08/03 03:25:57;;;;;;;;;1.00;1.00;;;;;;;;4968567;28;8870;-81
2022/08/03 03:28:24;;;;;;;;;3.00;1.00;;;;;;;;4967966;28;8991;-83
2022/08/03 03:30:55;;;;;;;;;1.00;1.00;;;;;;;;4968613;28;8800;-82
2022/08/03 03:33:23;;;;;;;;;0.00;0.00;;;;;;;;4960378;28;8880;-81
2022/08/03 03:35:50;;;;;;;;;1.00;1.00;;;;;;;;4967992;28;8865;-83
2022/08/03 03:38:18;;;;;;;;;0.00;0.00;;;;;;;;4966068;28;8876;-81
2022/08/03 03:40:47;;;;;;;;;1.00;1.00;;;;;;;;4968212;28;8881;-82
2022/08/03 03:43:18;;;;;;;;;3.75;1.00;;;;;;;;4967273;28;8963;-81
2022/08/03 03:45:46;;;;;;;;;2.50;2.00;;;;;;;;4967931;28;8885;-84
2022/08/03 03:48:14;;;;;;;;;3.00;1.00;;;;;;;;4968767;28;8889;-82
2022/08/03 03:50:42;;;;;;;;;0.00;0.00;;;;;;;;4979780;28;8894;-84
2022/08/03 03:53:10;;;;;;;;;1.00;1.00;;;;;;;;5006250;28;8899;-83
2022/08/03 03:55:38;;;;;;;;;2.00;1.00;;;;;;;;5006092;28;8894;-85
2022/08/03 03:58:08;;;;;;;;;1.00;1.00;;;;;;;;5007487;28;8876;-85
2022/08/03 04:00:35;;;;;;;;;2.00;2.00;;;;;;;;4997214;28;8902;-81
2022/08/03 04:03:03;;;;;;;;;1.25;1.25;;;;;;;;5005172;28;8884;-83
2022/08/03 04:11:10;;;;;;;;;1.00;1.00;;;;;;;;5004988;28;8860;-85
2022/08/03 04:13:41;;;;;;;;;1.00;1.00;;;;;;;;4998807;28;8864;-84
2022/08/03 04:16:10;;;;;;;;;1.00;1.00;;;;;;;;5006573;28;8890;-82
2022/08/03 04:18:40;;;;;;;;;1.00;1.00;;;;;;;;5006017;28;9636;-83
2022/08/03 04:21:11;;;;;;;;;1.00;1.00;;;;;;;;5005619;28;8884;-82
2022/08/03 04:23:41;;;;;;;;;1.50;1.00;;;;;;;;4999970;28;8853;-82
2022/08/03 04:26:11;;;;;;;;;1.75;1.75;;;;;;;;5004469;28;8888;-85
2022/08/03 04:28:52;;;;;;;;;;;;;;;;;;;;;
2022/08/03 04:31:26;;;;;;;;;4.00;1.00;;;;;;;;4973060;28;8785;-84
2022/08/03 04:33:56;;;;;;;;;1.00;1.00;;;;;;;;5000784;28;8904;-82
2022/08/03 04:36:29;;;;;;;;;1.75;1.00;;;;;;;;5014400;28;8922;-84
2022/08/03 04:39:03;;;;;;;;;0.50;0.50;;;;;;;;5004593;28;9523;-82
2022/08/03 04:41:31;;;;;;;;;1.00;1.00;;;;;;;;5006652;28;8903;-83
2022/08/03 04:44:01;;;;;;;;;1.00;1.00;;;;;;;;5005098;28;8914;-83
2022/08/03 04:46:32;;;;;;;;;1.00;1.00;;;;;;;;5006591;28;8906;-82
2022/08/03 04:49:00;;;;;;;;;2.00;2.00;;;;;;;;5006438;28;8860;-82
2022/08/03 04:51:28;;;;;;;;;1.25;1.25;;;;;;;;5005774;28;8886;-82
2022/08/03 04:53:58;;;;;;;;;1.00;1.00;;;;;;;;5006307;28;8888;-84
2022/08/03 04:56:28;;;;;;;;;2.00;1.75;;;;;;;;5004234;28;8872;-82
2022/08/03 04:58:58;;;;;;;;;2.25;1.75;;;;;;;;5006216;28;9661;-84
2022/08/03 05:07:37;;;;;;;;;1.00;1.00;;;;;;;;4859002;29;8897;-81
2022/08/03 05:10:07;;;;;;;;;1.75;1.75;;;;;;;;5003958;28;8946;-82
2022/08/03 05:12:34;;;;;;;;;1.50;1.50;;;;;;;;5011131;28;8888;-81
2022/08/03 05:15:01;;;;;;;;;2.50;2.50;;;;;;;;5004960;28;8896;-85
2022/08/03 05:17:32;;;;;;;;;1.00;1.00;;;;;;;;4997619;28;8875;-82
2022/08/03 05:20:00;;;;;;;;;1.00;1.00;;;;;;;;4999609;28;8864;-83
2022/08/03 05:22:28;;;;;;;;;0.00;0.00;;;;;;;;4999844;28;8908;-81
2022/08/03 05:24:57;;;;;;;;;1.25;1.25;;;;;;;;5008100;28;9659;-85
2022/08/03 05:30:44;;;;;;;;;2.00;2.00;;;;;;;;4951304;28;8803;-84
2022/08/03 05:33:13;;;;;;;;;1.00;1.00;;;;;;;;5001474;28;8899;-85
2022/08/03 05:35:40;;;;;;;;;1.00;1.00;;;;;;;;5005306;28;8898;-84
2022/08/03 05:38:07;;;;;;;;;2.00;2.00;;;;;;;;5005689;28;8887;-84
2022/08/03 05:40:35;;;;;;;;;1.75;1.75;;;;;;;;5004620;28;9025;-85
2022/08/03 05:43:02;;;;;;;;;1.50;1.50;;;;;;;;5006208;28;8860;-84
2022/08/03 05:45:30;;;;;;;;;3.25;3.25;;;;;;;;5010023;28;8895;-85
2022/08/03 05:48:00;;;;;;;;;1.00;1.00;;;;;;;;5005308;28;8958;-84
2022/08/03 05:50:29;;;;;;;;;3.00;3.00;;;;;;;;5006714;28;8872;-84
2022/08/03 05:52:59;;;;;;;;;2.00;2.00;;;;;;;;5012573;28;8906;-84
2022/08/03 05:55:27;;;;;;;;;2.00;2.00;;;;;;;;5003291;28;8898;-83
2022/08/03 05:57:54;;;;;;;;;2.50;1.75;;;;;;;;5003639;28;8946;-83
2022/08/03 06:00:22;;;;;;;;;1.50;1.50;;;;;;;;5004958;28;9614;-82
2022/08/03 06:02:50;;;;;;;;;2.25;2.25;;;;;;;;5003105;28;8868;-84
2022/08/03 06:05:17;;;;;;;;;1.60;1.60;;;;;;;;5004002;28;8876;-83
2022/08/03 06:07:48;;;;;;;;;2.20;2.20;;;;;;;;5004649;28;8848;-83
2022/08/03 06:10:15;;;;;;;;;1.00;1.00;;;;;;;;5004578;28;8884;-84
2022/08/03 06:12:46;;;;;;;;;2.60;2.60;;;;;;;;5004913;28;8999;-83
2022/08/03 06:15:14;;;;;;;;;2.00;2.00;;;;;;;;5004092;28;9003;-82
2022/08/03 06:17:48;;;;;;;;;2.00;2.00;;;;;;;;5004758;28;8884;-83
2022/08/03 06:20:17;;;;;;;;;1.00;1.00;;;;;;;;4997305;28;8872;-84
2022/08/03 06:22:46;;;;;;;;;1.00;1.00;;;;;;;;5002728;28;8922;-83
2022/08/03 06:25:15;;;;;;;;;2.80;0.80;;;;;;;;5018055;28;8850;-83
2022/08/03 06:27:42;;;;;;;;;2.00;2.00;;;;;;;;5009415;28;8999;-83
2022/08/03 06:30:11;;;;;;;;;1.00;1.00;;;;;;;;5003133;28;8967;-82
2022/08/03 06:32:39;;;;;;;;;0.00;0.00;;;;;;;;5006247;28;8869;-84
2022/08/03 06:35:07;;;;;;;;;1.00;1.00;;;;;;;;4999665;28;9015;-84
2022/08/03 06:37:48;;;;;;;;;0.80;0.80;;;;;;;;5009988;28;8950;-84
2022/08/03 06:40:17;;;;;;;;;2.00;2.00;;;;;;;;5013532;28;8872;-83
2022/08/03 06:42:45;;;;;;;;;2.40;1.00;;;;;;;;5003864;28;8865;-85
2022/08/03 06:45:13;;;;;;;;;0.00;0.00;;;;;;;;5003859;28;8922;-84
2022/08/03 06:47:41;;;;;;;;;1.00;1.00;;;;;;;;5008478;28;8991;-85
2022/08/03 06:50:09;;;;;;;;;3.40;1.80;;;;;;;;5007485;28;9014;-84
2022/08/03 06:52:37;;;;;;;;;1.00;1.00;;;;;;;;5008353;28;8930;-85
2022/08/03 06:55:07;;;;;;;;;1.00;1.00;;;;;;;;5004593;28;9626;-84
2022/08/03 06:57:34;;;;;;;;;1.40;1.40;;;;;;;;5011428;28;9010;-83
2022/08/03 07:00:02;;;;;;;;;2.40;2.40;;;;;;;;5010064;28;8860;-83
2022/08/03 07:02:31;;;;;;;;;2.00;2.00;;;;;;;;5008577;28;8825;-82
2022/08/03 07:04:58;;;;;;;;;3.20;2.00;;;;;;;;5008716;28;9010;-84
2022/08/03 07:07:30;;;;;;;;;1.00;1.00;;;;;;;;5002281;28;9031;-84
2022/08/03 07:10:00;;;;;;;;;1.20;1.20;;;;;;;;5005178;28;8882;-83
2022/08/03 07:12:30;;;;;;;;;2.60;2.60;;;;;;;;5007323;28;8856;-83
2022/08/03 07:15:01;;;;;;;;;1.80;1.80;;;;;;;;5008101;28;8870;-84
2022/08/03 07:17:29;;;;;;;;;3.20;3.00;;;;;;;;5014875;28;8962;-83
2022/08/03 07:19:57;;;;;;;;;5.00;4.00;;;;;;;;5015885;28;8992;-83
2022/08/03 07:22:24;;;;;;;;;4.60;4.60;;;;;;;;5009502;28;8875;-83
2022/08/03 07:24:52;;;;;;;;;4.00;4.00;;;;;;;;5008574;28;8891;-85
2022/08/03 07:27:19;;;;;;;;;4.00;4.00;;;;;;;;4990738;28;8888;-83
2022/08/03 07:29:48;;;;;;;;;3.20;3.20;;;;;;;;5004024;28;8868;-84
2022/08/03 07:32:15;;;;;;;;;2.40;2.40;;;;;;;;5001729;28;8831;-84
2022/08/03 07:34:43;;;;;;;;;3.00;3.00;;;;;;;;5001961;28;8884;-84
2022/08/03 07:37:10;;;;;;;;;3.00;1.00;;;;;;;;5005988;28;8868;-85
2022/08/03 07:39:37;;;;;;;;;1.80;1.80;;;;;;;;5002282;28;8871;-83
2022/08/03 07:42:05;;;;;;;;;1.20;0.80;;;;;;;;5003255;28;9006;-84
2022/08/03 07:47:40;;;;;;;;;1.40;1.40;;;;;;;;4990406;28;8959;-84
2022/08/03 07:50:09;;;;;;;;;2.40;1.20;;;;;;;;5002758;28;9725;-84
2022/08/03 07:52:48;;;;;;;;;2.40;2.40;;;;;;;;5000863;28;8902;-84
2022/08/03 07:55:16;;;;;;;;;1.60;1.60;;;;;;;;5003254;28;8978;-84
2022/08/03 07:57:43;;;;;;;;;0.60;0.60;;;;;;;;5004925;28;8858;-84
2022/08/03 08:00:15;;;;;;;;;0.00;0.00;;;;;;;;4999899;28;8954;-84
2022/08/03 08:02:44;;;;;;;;;0.60;0.60;;;;;;;;5004658;28;8880;-84
2022/08/03 08:05:12;;;;;;;;;1.40;1.40;;;;;;;;5003680;28;8864;-83
2022/08/03 08:07:39;;;;;;;;;0.40;0.40;;;;;;;;5006834;28;8883;-84
2022/08/03 08:10:08;;;;;;;;;1.80;1.80;;;;;;;;5010281;28;8868;-82
2022/08/03 08:12:36;;;;;;;;;1.40;1.40;;;;;;;;5005855;28;8880;-82
2022/08/03 08:15:04;;;;;;;;;0.60;0.60;;;;;;;;5005077;28;9677;-82
2022/08/03 08:17:32;;;;;;;;;0.60;0.60;;;;;;;;5004937;28;8894;-78
2022/08/03 08:20:00;;;;;;;;;0.60;0.60;;;;;;;;5007124;28;8990;-82
2022/08/03 08:22:28;;;;;;;;;0.60;0.60;;;;;;;;5006944;28;8894;-81
2022/08/03 08:24:57;;;;;;;;;0.40;0.40;;;;;;;;5014487;28;9039;-82
2022/08/03 08:27:27;;;;;;;;;0.60;0.60;;;;;;;;5011401;28;8872;-81
2022/08/03 08:29:55;;;;;;;;;0.00;0.00;;;;;;;;5005685;28;8947;-82
2022/08/03 08:32:22;;;;;;;;;0.00;0.00;;;;;;;;5009374;28;8831;-82
2022/08/03 08:34:49;;;;;;;;;0.80;0.00;;;;;;;;5004716;28;8910;-81
2022/08/03 08:37:18;;;;;;;;;0.40;0.40;;;;;;;;5007493;28;8896;-81
2022/08/03 08:39:46;;;;;;;;;0.00;0.00;;;;;;;;5003590;28;8876;-79
2022/08/03 08:42:13;;;;;;;;;0.00;0.00;;;;;;;;5005430;28;8999;-82
2022/08/03 08:44:41;;;;;;;;;0.20;0.20;;;;;;;;4995229;28;8966;-81
2022/08/03 08:47:09;;;;;;;;;1.00;1.00;;;;;;;;5002414;28;8880;-75
2022/08/03 08:49:36;;;;;;;;;1.00;1.00;;;;;;;;5005499;28;8880;-77
2022/08/03 08:52:04;;;;;;;;;1.20;1.20;;;;;;;;5014846;28;8872;-75
2022/08/03 08:54:34;;;;;;;;;0.80;0.80;;;;;;;;5010084;28;8876;-76
2022/08/03 08:57:03;;;;;;;;;2.40;0.80;;;;;;;;5006608;28;8891;-78
2022/08/03 08:59:33;;;;;;;;;0.60;0.60;;;;;;;;5003334;28;8888;-77
2022/08/03 09:02:01;;;;;;;;;1.00;1.00;;;;;;;;5004008;28;8849;-82
2022/08/03 09:04:29;;;;;;;;;2.00;0.00;;;;;;;;5004085;28;8860;-77
2022/08/03 09:07:00;;;;;;;;;1.40;1.40;;;;;;;;5008600;28;8877;-76
2022/08/03 09:09:32;;;;;;;;;1.00;1.00;;;;;;;;5006419;28;8983;-81
2022/08/03 09:11:59;;;;;;;;;2.00;0.40;;;;;;;;5006511;28;8892;-77
2022/08/03 09:14:26;;;;;;;;;2.00;2.00;;;;;;;;5004059;28;8902;-76
2022/08/03 09:17:01;;;;;;;;;1.00;1.00;;;;;;;;5005044;28;8884;-77
2022/08/03 09:19:29;;;;;;;;;2.00;2.00;;;;;;;;5005176;28;8887;-81
2022/08/03 09:22:11;;;;;;;;;1.00;1.00;;;;;;;;5003699;28;8882;-80
2022/08/03 09:24:55;;;;;;;;;1.40;1.40;;;;;;;;5005848;28;8896;-76
2022/08/03 09:27:23;;;;;;;;;1.60;1.60;;;;;;;;4994884;28;8941;-75
2022/08/03 09:29:51;;;;;;;;;0.80;0.80;;;;;;;;5005344;28;8888;-75
2022/08/03 09:32:21;;;;;;;;;0.00;0.00;;;;;;;;5004843;28;8894;-74
2022/08/03 09:34:49;;;;;;;;;1.20;1.20;;;;;;;;5004745;28;8876;-74
2022/08/03 09:37:17;;;;;;;;;2.00;2.00;;;;;;;;5005460;28;8871;-76
2022/08/03 09:39:46;;;;;;;;;2.00;2.00;;;;;;;;5001124;28;8877;-74
2022/08/03 09:42:16;;;;;;;;;3.00;0.80;;;;;;;;5004665;28;8990;-77
2022/08/03 09:44:45;;;;;;;;;2.80;1.80;;;;;;;;5006009;28;8919;-75
2022/08/03 09:47:13;;;;;;;;;1.80;1.80;;;;;;;;5004746;28;8886;-75
2022/08/03 09:49:42;;;;;;;;;2.00;2.00;;;;;;;;5003655;28;8906;-75
2022/08/03 09:52:14;;;;;;;;;1.40;1.40;;;;;;;;5003287;28;8973;-75
2022/08/03 09:54:42;;;;;;;;;2.60;1.40;;;;;;;;5010881;28;8864;-73
2022/08/03 09:57:22;;;;;;;;;1.40;1.40;;;;;;;;5012886;28;8913;-76
2022/08/03 09:59:50;;;;;;;;;2.00;2.00;;;;;;;;5004572;28;8966;-76
2022/08/03 10:02:24;;;;;;;;;2.00;2.00;;;;;;;;5010126;28;8846;-76
2022/08/03 10:04:52;;;;;;;;;0.00;0.00;;;;;;;;5004442;28;8872;-74
2022/08/03 10:07:21;;;;;;;;;2.80;2.80;;;;;;;;5009616;28;8842;-74
2022/08/03 10:09:56;;;;;;;;;2.20;1.00;;;;;;;;5005615;28;8991;-75
2022/08/03 10:12:25;;;;;;;;;2.00;2.00;;;;;;;;5004463;28;8864;-74
2022/08/03 10:14:53;;;;;;;;;2.00;2.00;;;;;;;;5004145;28;8852;-75
2022/08/03 10:17:21;;;;;;;;;1.00;1.00;;;;;;;;5004306;28;8914;-76
2022/08/03 10:19:49;;;;;;;;;1.60;1.60;;;;;;;;4996381;28;8979;-76
2022/08/03 10:22:19;;;;;;;;;1.20;1.20;;;;;;;;5009303;28;8868;-74
2022/08/03 10:24:53;;;;;;;;;3.60;2.00;;;;;;;;5007188;28;8870;-73
2022/08/03 10:27:22;;;;;;;;;1.00;1.00;;;;;;;;5002457;28;8875;-73
2022/08/03 10:29:58;;;;;;;;;1.80;1.80;;;;;;;;5003027;28;8864;-73
2022/08/03 10:32:29;;;;;;;;;2.40;2.40;;;;;;;;5000295;28;8851;-78
2022/08/03 10:35:03;;;;;;;;;1.00;1.00;;;;;;;;4998249;28;8904;-75
2022/08/03 10:37:33;;;;;;;;;1.00;1.00;;;;;;;;5002656;28;8876;-74
2022/08/03 10:40:01;;;;;;;;;1.60;1.60;;;;;;;;5003156;28;8888;-77
2022/08/03 10:42:31;;;;;;;;;2.00;2.00;;;;;;;;5002227;28;8852;-77
2022/08/03 10:45:05;;;;;;;;;2.60;1.00;;;;;;;;5001702;28;8865;-75
2022/08/03 10:47:34;;;;;;;;;2.00;2.00;;;;;;;;5003263;28;8894;-77
2022/08/03 10:50:02;;;;;;;;;1.00;1.00;;;;;;;;5002936;28;8895;-77
2022/08/03 10:52:29;;;;;;;;;0.00;0.00;;;;;;;;5001872;28;8916;-75
2022/08/03 10:57:51;;;;;;;;;0.00;0.00;;;;;;;;5003109;28;8844;-79
2022/08/03 11:00:22;;;;;;;;;3.80;2.20;;;;;;;;5002095;28;8868;-77
2022/08/03 11:03:17;;;;;;;;;1.00;1.00;;;;;;;;5001318;28;8946;-76
2022/08/03 11:05:46;;;;;;;;;1.00;1.00;;;;;;;;4958296;28;8884;-74
2022/08/03 11:08:24;;;;;;;;;1.00;1.00;;;;;;;;5002792;28;8855;-76
2022/08/03 11:10:52;;;;;;;;;1.00;1.00;;;;;;;;5001020;28;9627;-74
2022/08/03 11:13:21;;;;;;;;;0.60;0.60;;;;;;;;5003203;28;8994;-75
2022/08/03 11:15:51;;;;;;;;;1.40;0.20;;;;;;;;5002314;28;8880;-74
2022/08/03 11:18:19;;;;;;;;;2.00;1.00;;;;;;;;4999277;28;8868;-75
2022/08/03 11:20:49;;;;;;;;;0.00;0.00;;;;;;;;5002800;28;8868;-78
2022/08/03 11:23:17;;;;;;;;;0.00;0.00;;;;;;;;5002589;28;8858;-76
2022/08/03 11:26:12;;;;;;;;;1.40;1.00;;;;;;;;5002981;28;8869;-78
2022/08/03 11:28:40;;;;;;;;;1.00;1.00;;;;;;;;4982534;28;8994;-79
2022/08/03 11:31:48;;;;;;;;;0.00;0.00;;;;;;;;5002421;28;8828;-75
2022/08/03 11:34:16;;;;;;;;;1.25;1.25;;;;;;;;4995675;28;8991;-77
2022/08/03 11:37:17;;;;;;;;;1.75;1.75;;;;;;;;5003975;28;8872;-77
2022/08/03 11:39:46;;;;;;;;;0.25;0.25;;;;;;;;5004166;28;8856;-77
2022/08/03 11:42:43;;;;;;;;;0.50;0.50;;;;;;;;4990132;28;8899;-75
2022/08/03 11:45:11;;;;;;;;;1.00;1.00;;;;;;;;5004034;28;8893;-76
2022/08/03 11:47:40;;;;;;;;;1.00;1.00;;;;;;;;5003244;28;8898;-78
2022/08/03 11:50:08;;;;;;;;;1.00;1.00;;;;;;;;5002895;28;8872;-76
2022/08/03 11:52:39;;;;;;;;;0.00;0.00;;;;;;;;5013601;28;8941;-77
2022/08/03 11:55:12;;;;;;;;;0.50;0.50;;;;;;;;5006735;28;8872;-74
2022/08/03 11:57:40;;;;;;;;;0.50;0.50;;;;;;;;5014536;28;8868;-83
2022/08/03 12:00:24;;;;;;;;;0.75;0.75;;;;;;;;5010591;28;8878;-80
2022/08/03 12:03:01;;;;;;;;;1.25;1.25;;;;;;;;5002914;28;8891;-78
2022/08/03 12:05:38;;;;;;;;;0.00;0.00;;;;;;;;5007859;28;8899;-76
2022/08/03 12:08:06;;;;;;;;;0.75;0.75;;;;;;;;5009279;28;8895;-76
2022/08/03 12:10:34;;;;;;;;;0.00;0.00;;;;;;;;5006161;28;9027;-76
2022/08/03 12:13:07;;;;;;;;;0.75;0.75;;;;;;;;5014113;28;8853;-76
2022/08/03 12:15:36;;;;;;;;;0.25;0.25;;;;;;;;5006624;28;9714;-76
2022/08/03 12:18:12;;;;;;;;;1.00;0.00;;;;;;;;5011337;28;8850;-76
2022/08/03 12:20:39;;;;;;;;;1.00;1.00;;;;;;;;5006661;28;9710;-75
2022/08/03 12:23:08;;;;;;;;;1.00;1.00;;;;;;;;5009113;28;10274;-75
2022/08/03 12:25:36;;;;;;;;;0.75;0.75;;;;;;;;5005844;28;8876;-76
2022/08/03 12:28:11;;;;;;;;;1.50;1.50;;;;;;;;5011582;28;8864;-77
2022/08/03 12:30:39;;;;;;;;;0.75;0.75;;;;;;;;5010245;28;8804;-75
2022/08/03 12:33:20;;;;;;;;;0.75;0.75;;;;;;;;5005327;28;8888;-75
2022/08/03 12:35:49;;;;;;;;;0.25;0.25;;;;;;;;5005863;28;8857;-76
2022/08/03 12:38:21;;;;;;;;;0.75;0.75;;;;;;;;4996134;28;9010;-77
2022/08/03 12:41:03;;;;;;;;;1.00;0.00;;;;;;;;5009155;28;8862;-75
2022/08/03 12:43:30;;;;;;;;;2.25;1.00;;;;;;;;5007616;28;8873;-76
2022/08/03 12:46:11;;;;;;;;;0.00;0.00;;;;;;;;5006204;28;8906;-79
2022/08/03 12:49:12;;;;;;;;;1.25;1.25;;;;;;;;5007325;28;8861;-77
2022/08/03 12:51:58;;;;;;;;;0.25;0.25;;;;;;;;4989495;28;8895;-76
2022/08/03 12:54:27;;;;;;;;;0.00;0.00;;;;;;;;5005719;28;8868;-77
2022/08/03 12:56:58;;;;;;;;;0.75;0.00;;;;;;;;5006126;28;8869;-76
2022/08/03 12:59:30;;;;;;;;;1.00;1.00;;;;;;;;5005298;28;8888;-75
2022/08/03 13:01:58;;;;;;;;;1.00;0.25;;;;;;;;5008878;28;8794;-77
2022/08/03 13:04:29;;;;;;;;;1.00;1.00;;;;;;;;5017554;28;8988;-76
2022/08/03 13:07:03;;;;;;;;;0.00;0.00;;;;;;;;5015323;28;8899;-74
2022/08/03 13:09:31;;;;;;;;;0.25;0.25;;;;;;;;5014015;28;8895;-74
2022/08/03 13:12:07;;;;;;;;;0.00;0.00;;;;;;;;5005932;28;8884;-75
2022/08/03 13:14:34;;;;;;;;;2.25;0.50;;;;;;;;5016300;28;8872;-75
2022/08/03 13:17:01;;;;;;;;;0.75;0.75;;;;;;;;5011712;28;8895;-77
2022/08/03 13:19:28;;;;;;;;;0.50;0.50;;;;;;;;5007553;28;8871;-77
2022/08/03 13:21:56;;;;;;;;;2.00;0.50;;;;;;;;5008755;28;8989;-76
2022/08/03 13:24:26;;;;;;;;;2.25;0.25;;;;;;;;5006334;28;8854;-74
2022/08/03 13:26:53;;;;;;;;;0.00;0.00;;;;;;;;5012659;28;8862;-75
2022/08/03 13:29:20;;;;;;;;;0.25;0.00;;;;;;;;5017246;28;9818;-76
2022/08/03 13:31:50;;;;;;;;;1.25;1.25;;;;;;;;5018591;28;8798;-76
2022/08/03 13:34:18;;;;;;;;;0.00;0.00;;;;;;;;4996688;28;8884;-75
2022/08/03 13:36:45;;;;;;;;;0.50;0.50;;;;;;;;5004965;28;8954;-75
2022/08/03 13:39:13;;;;;;;;;0.25;0.00;;;;;;;;5003260;28;8860;-75
2022/08/03 13:41:42;;;;;;;;;0.75;0.75;;;;;;;;5005855;28;8885;-76
2022/08/03 13:44:09;;;;;;;;;0.00;0.00;;;;;;;;5012278;28;8894;-75
2022/08/03 13:46:36;;;;;;;;;0.25;0.25;;;;;;;;5013658;28;8896;-75
2022/08/03 13:49:03;;;;;;;;;2.50;2.50;;;;;;;;5004986;28;9784;-75
2022/08/03 13:51:31;;;;;;;;;0.00;0.00;;;;;;;;5004287;28;8892;-74
2022/08/03 13:53:58;;;;;;;;;0.00;0.00;;;;;;;;5019545;28;8850;-74
2022/08/03 13:56:26;;;;;;;;;0.00;0.00;;;;;;;;5005175;28;8942;-75
2022/08/03 13:58:55;;;;;;;;;2.25;0.25;;;;;;;;5009885;28;8885;-74
2022/08/03 14:01:23;;;;;;;;;1.00;1.00;;;;;;;;5004293;28;8833;-75
2022/08/03 14:03:52;;;;;;;;;0.50;0.25;;;;;;;;5002517;28;8945;-75
2022/08/03 14:06:20;;;;;;;;;2.50;1.25;;;;;;;;5015665;28;9661;-74
2022/08/03 14:08:47;;;;;;;;;0.00;0.00;;;;;;;;5020418;28;8877;-76
2022/08/03 14:11:15;;;;;;;;;1.00;0.00;;;;;;;;5014533;28;8860;-77
2022/08/03 14:13:42;;;;;;;;;1.50;1.00;;;;;;;;5003770;28;8888;-74
2022/08/03 14:16:11;;;;;;;;;0.25;0.00;;;;;;;;5013169;28;8903;-75
2022/08/03 14:18:39;;;;;;;;;0.00;0.00;;;;;;;;5015896;28;8959;-75
2022/08/03 14:21:06;;;;;;;;;0.50;0.50;;;;;;;;5003111;28;8864;-75
2022/08/03 14:23:34;;;;;;;;;1.00;0.00;;;;;;;;5018976;28;8999;-76
2022/08/03 14:26:01;;;;;;;;;0.00;0.00;;;;;;;;5012240;28;8869;-74
2022/08/03 14:28:28;;;;;;;;;0.00;0.00;;;;;;;;5019323;28;8976;-75
2022/08/03 14:30:56;;;;;;;;;0.00;0.00;;;;;;;;5010132;28;8825;-76
2022/08/03 14:33:27;;;;;;;;;1.00;1.00;;;;;;;;4999943;28;8880;-77
2022/08/03 14:35:54;;;;;;;;;1.00;1.00;;;;;;;;5003076;28;8892;-75
2022/08/03 14:38:22;;;;;;;;;0.25;0.25;;;;;;;;5004432;28;8852;-76
2022/08/03 14:40:50;;;;;;;;;0.75;0.00;;;;;;;;5002985;28;8860;-75
2022/08/03 14:43:19;;;;;;;;;1.00;1.00;;;;;;;;5004121;28;8888;-75
2022/08/03 14:45:46;;;;;;;;;1.75;1.75;;;;;;;;5002080;28;8849;-77
2022/08/03 14:48:13;;;;;;;;;0.50;0.50;;;;;;;;5003035;28;8872;-77
2022/08/03 14:50:42;;;;;;;;;1.00;1.00;;;;;;;;5009265;28;8966;-75
2022/08/03 14:53:10;;;;;;;;;0.75;0.75;;;;;;;;5002690;28;8943;-74
2022/08/03 14:55:37;;;;;;;;;1.00;1.00;;;;;;;;5002685;28;8876;-74
2022/08/03 14:58:05;;;;;;;;;0.50;0.50;;;;;;;;4985165;28;8876;-75
2022/08/03 15:00:33;;;;;;;;;1.00;1.00;;;;;;;;5003529;28;8796;-75
2022/08/03 15:03:00;;;;;;;;;0.25;0.25;;;;;;;;5003870;28;8896;-75
2022/08/03 15:05:28;;;;;;;;;0.00;0.00;;;;;;;;5002873;28;8880;-76
2022/08/03 15:07:57;;;;;;;;;0.00;0.00;;;;;;;;5004198;28;8946;-75
2022/08/03 15:10:24;;;;;;;;;1.00;1.00;;;;;;;;5001354;28;8864;-75
2022/08/03 15:12:53;;;;;;;;;0.50;0.50;;;;;;;;5003065;28;8912;-74
2022/08/03 15:15:20;;;;;;;;;1.00;1.00;;;;;;;;5002565;28;8884;-75
2022/08/03 15:17:47;;;;;;;;;1.00;1.00;;;;;;;;5005296;28;8857;-74
2022/08/03 15:20:15;;;;;;;;;0.75;0.75;;;;;;;;5011911;28;8892;-77
2022/08/03 15:22:42;;;;;;;;;2.00;1.00;;;;;;;;5002495;28;8895;-76
2022/08/03 15:25:11;;;;;;;;;1.00;1.00;;;;;;;;5003694;28;8864;-76
2022/08/03 15:27:39;;;;;;;;;1.25;1.25;;;;;;;;5002115;28;8884;-76
2022/08/03 15:30:07;;;;;;;;;0.25;0.25;;;;;;;;5003216;28;8876;-77
2022/08/03 15:32:35;;;;;;;;;2.00;1.00;;;;;;;;5001741;28;8880;-76
2022/08/03 15:35:02;;;;;;;;;0.00;0.00;;;;;;;;5008083;28;8900;-76
2022/08/03 15:37:29;;;;;;;;;3.00;1.00;;;;;;;;5012235;28;8864;-75
2022/08/03 15:39:57;;;;;;;;;1.00;1.00;;;;;;;;5011967;28;9647;-77
2022/08/03 15:42:26;;;;;;;;;1.00;1.00;;;;;;;;5005449;28;8852;-76
2022/08/03 15:44:53;;;;;;;;;0.00;0.00;;;;;;;;5013011;28;8943;-77
2022/08/03 15:47:21;;;;;;;;;0.75;0.75;;;;;;;;5013789;28;8858;-76
2022/08/03 15:49:48;;;;;;;;;0.75;0.75;;;;;;;;5010598;28;8866;-75
2022/08/03 15:52:15;;;;;;;;;1.00;1.00;;;;;;;;5011989;28;8864;-76
2022/08/03 15:54:42;;;;;;;;;1.50;1.00;;;;;;;;5001168;28;8898;-75
2022/08/03 15:57:10;;;;;;;;;1.00;1.00;;;;;;;;5007917;28;8997;-75
2022/08/03 15:59:38;;;;;;;;;2.25;0.50;;;;;;;;5003529;28;9011;-77
2022/08/03 16:02:06;;;;;;;;;0.50;0.50;;;;;;;;5001353;28;8825;-77
2022/08/03 16:04:33;;;;;;;;;1.50;1.50;;;;;;;;5003319;28;8868;-74
2022/08/03 16:07:00;;;;;;;;;3.25;1.00;;;;;;;;4999101;28;8872;-76
2022/08/03 16:09:28;;;;;;;;;0.50;0.50;;;;;;;;5006219;28;8876;-75